createdAt,value
2022-11-01T00:00:30.703Z,9.7
2022-11-01T00:01:34.919Z,8.9
2022-11-01T00:02:38.949Z,9.1
2022-11-01T00:03:42.924Z,10.2
2022-11-01T00:04:47.576Z,9.2
2022-11-01T00:05:51.659Z,10.1
2022-11-01T00:06:56.253Z,10.2
2022-11-01T00:08:00.558Z,8.8
2022-11-01T00:09:04.836Z,9.5
2022-11-01T00:10:08.980Z,9.9
2022-11-01T00:11:13.188Z,10
2022-11-01T00:12:17.727Z,9.9
2022-11-01T00:13:22.244Z,8.8
2022-11-01T00:14:26.284Z,8.2
2022-11-01T00:15:30.848Z,9
2022-11-01T00:16:34.958Z,8.8
2022-11-01T00:17:39.615Z,8.5
2022-11-01T00:18:44.155Z,9.1
2022-11-01T00:19:48.185Z,8.5
2022-11-01T00:20:52.342Z,9.7
2022-11-01T00:21:56.821Z,9.3
2022-11-01T00:23:01.240Z,10.7
2022-11-01T00:24:05.019Z,8.7
2022-11-01T00:25:09.607Z,9.9
2022-11-01T00:26:13.704Z,8.3
2022-11-01T00:27:17.714Z,8.3
2022-11-01T00:28:22.256Z,9.2
2022-11-01T00:29:26.295Z,8.6
2022-11-01T00:30:30.316Z,8.2
2022-11-01T00:31:37.488Z,8.7
2022-11-01T00:32:41.680Z,9.5
2022-11-01T00:33:46.252Z,10.5
2022-11-01T00:34:50.333Z,9
2022-11-01T00:35:54.455Z,10
2022-11-01T00:37:01.590Z,10
2022-11-01T00:38:06.121Z,10.2
2022-11-01T00:39:10.312Z,9.5
2022-11-01T00:40:14.808Z,8.9
2022-11-01T00:41:19.012Z,8.8
2022-11-01T00:42:23.471Z,9.7
2022-11-01T00:43:28.043Z,9.4
2022-11-01T00:44:32.196Z,9.7
2022-11-01T00:45:36.669Z,11.1
2022-11-01T00:46:40.944Z,10.1
2022-11-01T00:47:45.320Z,11.3
2022-11-01T00:48:49.452Z,10.9
2022-11-01T00:49:54.079Z,10.8
2022-11-01T00:50:58.214Z,11.6
2022-11-01T00:52:02.739Z,11.1
2022-11-01T00:53:06.852Z,11.3
2022-11-01T00:54:11.407Z,12
2022-11-01T00:55:15.411Z,11.3
2022-11-01T00:56:19.587Z,11.4
2022-11-01T00:57:24.121Z,12.1
2022-11-01T00:58:28.176Z,15.1
2022-11-01T00:59:32.913Z,14.1
2022-11-01T01:00:37.356Z,15
2022-11-01T01:01:42.200Z,13.8
2022-11-01T01:02:46.465Z,15.2
2022-11-01T01:03:50.551Z,14
2022-11-01T01:04:54.742Z,14.2
2022-11-01T01:05:58.712Z,16.5
2022-11-01T01:07:02.840Z,12.7
2022-11-01T01:08:06.893Z,13.4
2022-11-01T01:09:11.020Z,13.6
2022-11-01T01:10:15.162Z,12.3
2022-11-01T01:11:19.628Z,11.1
2022-11-01T01:12:23.747Z,11.9
2022-11-01T01:13:27.745Z,11.7
2022-11-01T01:14:32.403Z,13.2
2022-11-01T01:15:36.444Z,12.7
2022-11-01T01:17:44.496Z,12.4
2022-11-01T01:18:48.660Z,11.5
2022-11-01T01:19:53.155Z,11.4
2022-11-01T01:20:57.216Z,11.6
2022-11-01T01:22:04.477Z,11.4
2022-11-01T01:23:09.046Z,10.6
2022-11-01T01:24:13.492Z,11.7
2022-11-01T01:25:17.575Z,13
2022-11-01T01:26:21.744Z,11.7
2022-11-01T01:27:25.784Z,12.1
2022-11-01T01:28:29.940Z,13.4
2022-11-01T01:29:34.432Z,13.1
2022-11-01T01:30:38.988Z,12.9
2022-11-01T01:31:43.136Z,11.5
2022-11-01T01:32:47.627Z,12.1
2022-11-01T01:33:51.688Z,13.9
2022-11-01T01:34:55.831Z,12.5
2022-11-01T01:36:00.097Z,12.5
2022-11-01T01:37:04.463Z,12.8
2022-11-01T01:38:08.575Z,13.7
2022-11-01T01:39:12.724Z,12.8
2022-11-01T01:40:16.792Z,12.3
2022-11-01T01:41:21.415Z,11.9
2022-11-01T01:42:30.989Z,11.8
2022-11-01T01:43:35.471Z,12
2022-11-01T01:44:42.651Z,12.6
2022-11-01T01:45:47.291Z,12
2022-11-01T01:46:51.795Z,12.4
2022-11-01T01:47:55.980Z,11.9
2022-11-01T01:49:08.155Z,13.1
2022-11-01T01:50:12.711Z,11
2022-11-01T01:51:17.159Z,10.6
2022-11-01T01:52:21.246Z,11.5
2022-11-01T01:53:25.432Z,9.9
2022-11-01T01:54:35.536Z,9.9
2022-11-01T01:55:39.620Z,9.7
2022-11-01T01:56:46.703Z,8.8
2022-11-01T01:57:50.784Z,9.5
2022-11-01T01:58:54.938Z,8.4
2022-11-01T02:00:04.575Z,9.1
2022-11-01T02:01:09.298Z,9.8
2022-11-01T02:02:13.410Z,10.7
2022-11-01T02:03:17.435Z,8.6
2022-11-01T02:04:22.001Z,9.9
2022-11-01T02:05:26.050Z,9.9
2022-11-01T02:06:35.653Z,9.7
2022-11-01T02:07:39.707Z,9.4
2022-11-01T02:08:43.855Z,10.2
2022-11-01T02:09:48.447Z,8.9
2022-11-01T02:10:52.543Z,9.7
2022-11-01T02:11:57.096Z,7.9
2022-11-01T02:13:01.280Z,9
2022-11-01T02:14:05.775Z,8.7
2022-11-01T02:15:09.894Z,8.1
2022-11-01T02:16:13.908Z,7.7
2022-11-01T02:17:28.692Z,7.3
2022-11-01T02:18:37.947Z,9
2022-11-01T02:19:42.418Z,7.9
2022-11-01T02:20:57.288Z,8.6
2022-11-01T02:22:09.415Z,7.9
2022-11-01T02:23:24.240Z,8.2
2022-11-01T02:24:38.892Z,7
2022-11-01T02:25:43.018Z,7.6
2022-11-01T02:26:55.191Z,7.7
2022-11-01T02:28:07.426Z,8
2022-11-01T02:29:22.231Z,8.1
2022-11-01T02:30:29.287Z,8.7
2022-11-01T02:31:38.920Z,7.6
2022-11-01T02:32:53.771Z,7.3
2022-11-01T02:34:02.935Z,7.5
2022-11-01T02:35:12.543Z,7.3
2022-11-01T02:36:27.404Z,6.7
2022-11-01T02:37:42.103Z,7.6
2022-11-01T02:38:56.912Z,6.5
2022-11-01T02:40:00.911Z,6.6
2022-11-01T02:41:08.057Z,7.8
2022-11-01T02:42:22.859Z,7.9
2022-11-01T02:43:29.480Z,7.8
2022-11-01T02:44:39.123Z,6.8
2022-11-01T02:45:43.239Z,6.8
2022-11-01T02:46:47.223Z,7.2
2022-11-01T02:47:56.963Z,7.6
2022-11-01T02:49:01.303Z,7.1
2022-11-01T02:50:05.899Z,6.6
2022-11-01T02:51:10.069Z,6.8
2022-11-01T02:52:14.238Z,6.9
2022-11-01T02:53:18.467Z,6.8
2022-11-01T02:54:22.938Z,5.6
2022-11-01T02:55:32.577Z,6.2
2022-11-01T02:56:36.606Z,5.5
2022-11-01T02:57:40.672Z,6.2
2022-11-01T02:58:44.807Z,5.8
2022-11-01T02:59:48.900Z,6.5
2022-11-01T03:00:53.139Z,6.8
2022-11-01T03:01:57.662Z,6.1
2022-11-01T03:03:01.591Z,6.4
2022-11-01T03:04:05.748Z,6.9
2022-11-01T03:05:09.771Z,6.2
2022-11-01T03:06:19.534Z,5.9
2022-11-01T03:07:29.101Z,6.6
2022-11-01T03:08:33.147Z,6.1
2022-11-01T03:09:45.380Z,7.2
2022-11-01T03:10:50.043Z,6
2022-11-01T03:12:04.752Z,5.8
2022-11-01T03:13:17.411Z,5.5
2022-11-01T03:14:21.555Z,6.1
2022-11-01T03:15:33.704Z,6.1
2022-11-01T03:16:37.878Z,6.5
2022-11-01T03:17:44.999Z,6.3
2022-11-01T03:18:49.507Z,6.5
2022-11-01T03:20:02.115Z,6.1
2022-11-01T03:21:06.340Z,6
2022-11-01T03:22:11.229Z,6.2
2022-11-01T03:23:20.599Z,5.6
2022-11-01T03:24:30.223Z,5.8
2022-11-01T03:25:39.881Z,5.4
2022-11-01T03:26:43.920Z,5.8
2022-11-01T03:27:47.986Z,6.2
2022-11-01T03:28:52.083Z,5.7
2022-11-01T03:29:56.060Z,5.4
2022-11-01T03:31:00.216Z,5.4
2022-11-01T03:32:04.283Z,4.9
2022-11-01T03:33:08.388Z,5.6
2022-11-01T03:34:12.468Z,6.8
2022-11-01T03:35:16.561Z,5.5
2022-11-01T03:36:21.100Z,6.7
2022-11-01T03:37:25.208Z,6.2
2022-11-01T03:38:29.686Z,6
2022-11-01T03:39:33.832Z,5.5
2022-11-01T03:40:46.119Z,6.5
2022-11-01T03:41:50.718Z,6.5
2022-11-01T03:42:55.243Z,5.9
2022-11-01T03:43:59.375Z,5.7
2022-11-01T03:45:03.873Z,6
2022-11-01T03:46:08.597Z,6.2
2022-11-01T03:47:13.215Z,6.1
2022-11-01T03:48:17.635Z,5.6
2022-11-01T03:49:22.171Z,5.1
2022-11-01T03:50:26.207Z,5.6
2022-11-01T03:51:30.391Z,5.7
2022-11-01T03:52:34.534Z,5.4
2022-11-01T03:53:39.176Z,5.4
2022-11-01T03:54:43.636Z,5.5
2022-11-01T03:55:47.726Z,6.1
2022-11-01T03:56:51.799Z,5.6
2022-11-01T03:57:55.946Z,6
2022-11-01T03:59:00.568Z,6.3
2022-11-01T04:00:05.233Z,5.7
2022-11-01T04:01:09.850Z,6.2
2022-11-01T04:02:14.290Z,6.1
2022-11-01T04:03:18.390Z,6
2022-11-01T04:04:22.955Z,5.5
2022-11-01T04:05:27.471Z,6
2022-11-01T04:06:31.541Z,6.1
2022-11-01T04:07:35.562Z,6.3
2022-11-01T04:08:39.687Z,6.2
2022-11-01T04:09:43.735Z,6.5
2022-11-01T04:10:47.903Z,6.8
2022-11-01T04:11:51.888Z,5.7
2022-11-01T04:12:55.930Z,5.7
2022-11-01T04:14:00.523Z,5.6
2022-11-01T04:15:09.768Z,5.6
2022-11-01T04:16:19.431Z,5.9
2022-11-01T04:17:29.084Z,5.5
2022-11-01T04:19:48.430Z,6.4
2022-11-01T04:20:57.679Z,6
2022-11-01T04:22:12.338Z,7.2
2022-11-01T04:23:16.511Z,8.2
2022-11-01T04:24:21.350Z,7.6
2022-11-01T04:25:25.759Z,6.5
2022-11-01T04:26:30.207Z,6.3
2022-11-01T04:27:34.771Z,5.6
2022-11-01T04:28:39.303Z,6.2
2022-11-01T04:29:43.459Z,6.1
2022-11-01T04:30:48.018Z,5.9
2022-11-01T04:31:52.566Z,6.2
2022-11-01T04:32:57.120Z,6.4
2022-11-01T04:34:01.332Z,6.7
2022-11-01T04:36:10.334Z,5.9
2022-11-01T04:37:14.910Z,5.8
2022-11-01T04:38:18.983Z,5.6
2022-11-01T04:39:23.035Z,6.1
2022-11-01T04:40:27.077Z,5.8
2022-11-01T04:41:31.266Z,5.7
2022-11-01T04:42:35.714Z,5.5
2022-11-01T04:43:39.838Z,6.9
2022-11-01T04:44:44.348Z,6.1
2022-11-01T04:45:48.399Z,5.4
2022-11-01T04:46:55.034Z,5.5
2022-11-01T04:47:59.397Z,6.1
2022-11-01T04:49:06.347Z,6.2
2022-11-01T04:50:10.763Z,5.7
2022-11-01T04:51:14.870Z,6.6
2022-11-01T04:52:19.111Z,6.5
2022-11-01T04:53:23.611Z,6.1
2022-11-01T04:54:27.691Z,6.2
2022-11-01T04:55:32.226Z,6
2022-11-01T04:56:36.271Z,6.6
2022-11-01T04:57:40.295Z,5.8
2022-11-01T04:58:46.005Z,5.9
2022-11-01T04:59:48.566Z,5.8
2022-11-01T05:00:52.634Z,5.7
2022-11-01T05:01:56.669Z,5.8
2022-11-01T05:03:01.051Z,5.5
2022-11-01T05:04:07.971Z,5.7
2022-11-01T05:05:12.403Z,6.4
2022-11-01T05:06:16.533Z,5.8
2022-11-01T05:07:20.744Z,5.4
2022-11-01T05:08:25.310Z,5.7
2022-11-01T05:09:30.889Z,6.1
2022-11-01T05:10:34.224Z,6.7
2022-11-01T05:11:38.395Z,5.8
2022-11-01T05:12:42.402Z,5.6
2022-11-01T05:13:46.615Z,5.7
2022-11-01T05:14:54.326Z,6
2022-11-01T05:16:18.703Z,5.8
2022-11-01T05:16:59.823Z,6.4
2022-11-01T05:18:03.815Z,6.1
2022-11-01T05:19:07.923Z,5.8
2022-11-01T05:20:12.015Z,5.9
2022-11-01T05:21:16.568Z,5.7
2022-11-01T05:22:20.660Z,7.1
2022-11-01T05:23:24.875Z,6.3
2022-11-01T05:24:29.487Z,6.5
2022-11-01T05:25:35.413Z,6
2022-11-01T05:26:37.982Z,5.9
2022-11-01T05:27:42.003Z,6.4
2022-11-01T05:28:46.054Z,5.6
2022-11-01T05:29:50.187Z,5.7
2022-11-01T05:30:54.307Z,6.7
2022-11-01T05:31:58.294Z,5.4
2022-11-01T05:33:02.455Z,5.6
2022-11-01T05:34:06.503Z,5.8
2022-11-01T05:35:10.637Z,5.6
2022-11-01T05:36:15.162Z,5.7
2022-11-01T05:37:22.440Z,5.8
2022-11-01T05:38:24.354Z,5.8
2022-11-01T05:39:28.304Z,5.7
2022-11-01T05:40:32.467Z,6.2
2022-11-01T05:41:36.967Z,5.5
2022-11-01T05:42:41.139Z,6.5
2022-11-01T05:43:45.750Z,6.1
2022-11-01T05:44:50.343Z,6.4
2022-11-01T05:45:54.766Z,5.5
2022-11-01T05:46:58.895Z,6
2022-11-01T05:48:04.299Z,6
2022-11-01T05:49:08.613Z,6.5
2022-11-01T05:50:13.156Z,6.2
2022-11-01T05:51:17.386Z,6.9
2022-11-01T05:52:22.358Z,5.8
2022-11-01T05:53:26.487Z,5.5
2022-11-01T05:54:31.127Z,5.7
2022-11-01T05:55:35.535Z,6.2
2022-11-01T05:56:39.595Z,5.7
2022-11-01T05:57:43.836Z,5.3
2022-11-01T05:58:48.327Z,5.4
2022-11-01T05:59:52.870Z,5.6
2022-11-01T06:00:56.963Z,5.5
2022-11-01T06:02:01.731Z,5.1
2022-11-01T06:03:06.541Z,5.2
2022-11-01T06:04:10.754Z,5.5
2022-11-01T06:05:15.196Z,5.4
2022-11-01T06:06:19.335Z,5.3
2022-11-01T06:07:23.902Z,5.8
2022-11-01T06:08:28.355Z,5.6
2022-11-01T06:09:32.374Z,5.4
2022-11-01T06:10:36.693Z,5.4
2022-11-01T06:11:41.868Z,5.5
2022-11-01T06:12:45.222Z,5.7
2022-11-01T06:13:49.363Z,5.7
2022-11-01T06:14:53.835Z,5.5
2022-11-01T06:15:57.887Z,5.7
2022-11-01T06:17:01.958Z,5.6
2022-11-01T06:18:06.465Z,5.6
2022-11-01T06:19:10.675Z,5.6
2022-11-01T06:20:14.806Z,6.2
2022-11-01T06:21:18.997Z,5.4
2022-11-01T06:22:23.406Z,4.8
2022-11-01T06:23:27.530Z,5.7
2022-11-01T06:24:32.174Z,5
2022-11-01T06:25:36.673Z,5.4
2022-11-01T06:26:41.163Z,5.7
2022-11-01T06:27:45.290Z,5.7
2022-11-01T06:28:49.839Z,6.4
2022-11-01T06:29:53.970Z,5.8
2022-11-01T06:30:58.950Z,6.1
2022-11-01T06:32:03.266Z,6.4
2022-11-01T06:33:07.771Z,6.4
2022-11-01T06:34:12.244Z,6.2
2022-11-01T06:35:16.348Z,6.2
2022-11-01T06:36:20.712Z,6.2
2022-11-01T06:37:25.063Z,6.5
2022-11-01T06:38:29.222Z,6.7
2022-11-01T06:39:33.711Z,6.6
2022-11-01T06:40:38.262Z,6.6
2022-11-01T06:41:42.347Z,6.8
2022-11-01T06:42:46.987Z,6.8
2022-11-01T06:43:50.451Z,6.3
2022-11-01T06:44:54.575Z,6.6
2022-11-01T06:45:58.807Z,6.1
2022-11-01T06:47:03.334Z,5.4
2022-11-01T06:48:07.922Z,5.9
2022-11-01T06:49:14.836Z,6.3
2022-11-01T06:50:16.918Z,6
2022-11-01T06:51:21.098Z,5.6
2022-11-01T06:52:25.643Z,6.1
2022-11-01T06:53:30.227Z,6.7
2022-11-01T06:54:34.759Z,6.7
2022-11-01T06:55:39.358Z,6.2
2022-11-01T06:56:44.054Z,6.1
2022-11-01T06:57:48.742Z,5.6
2022-11-01T06:58:57.227Z,6
2022-11-01T07:00:01.803Z,6.1
2022-11-01T07:01:06.570Z,5.8
2022-11-01T07:02:14.104Z,6.3
2022-11-01T07:03:15.767Z,5.7
2022-11-01T07:04:20.107Z,6
2022-11-01T07:05:25.122Z,4.9
2022-11-01T07:06:29.167Z,5.3
2022-11-01T07:07:33.761Z,5.3
2022-11-01T07:08:37.947Z,5.3
2022-11-01T07:09:42.423Z,5
2022-11-01T07:10:46.531Z,5.2
2022-11-01T07:11:51.062Z,5
2022-11-01T07:12:55.614Z,4.9
2022-11-01T07:14:02.806Z,5.6
2022-11-01T07:15:06.889Z,4.5
2022-11-01T07:16:11.407Z,5.4
2022-11-01T07:17:15.549Z,5.1
2022-11-01T07:18:19.650Z,5.1
2022-11-01T07:19:24.269Z,4.8
2022-11-01T07:20:28.906Z,4.7
2022-11-01T07:21:33.494Z,4.8
2022-11-01T07:22:37.942Z,5
2022-11-01T07:23:42.402Z,5.2
2022-11-01T07:24:46.545Z,4.6
2022-11-01T07:25:51.150Z,5.2
2022-11-01T07:26:55.734Z,4.9
2022-11-01T07:27:59.796Z,5.5
2022-11-01T07:29:04.574Z,5.4
2022-11-01T07:30:09.138Z,5.3
2022-11-01T07:31:13.571Z,5.4
2022-11-01T07:32:18.386Z,5.2
2022-11-01T07:33:22.702Z,5.4
2022-11-01T07:34:27.288Z,5.2
2022-11-01T07:35:31.313Z,5.2
2022-11-01T07:36:35.862Z,5.4
2022-11-01T07:37:39.972Z,5.7
2022-11-01T07:38:44.023Z,5.7
2022-11-01T07:39:48.626Z,5.9
2022-11-01T07:40:53.291Z,5.7
2022-11-01T07:41:57.814Z,5.8
2022-11-01T07:43:02.358Z,5.4
2022-11-01T07:44:06.966Z,6
2022-11-01T07:45:13.050Z,5.7
2022-11-01T07:46:16.106Z,5.3
2022-11-01T07:47:20.201Z,5.7
2022-11-01T07:48:24.786Z,5.8
2022-11-01T07:49:29.368Z,5.8
2022-11-01T07:50:33.854Z,5.8
2022-11-01T07:51:38.402Z,5.4
2022-11-01T07:52:42.623Z,5.8
2022-11-01T07:53:46.764Z,5.9
2022-11-01T07:54:51.191Z,5.9
2022-11-01T07:55:55.375Z,5.8
2022-11-01T07:57:02.769Z,5.4
2022-11-01T07:58:07.412Z,5.5
2022-11-01T07:59:11.626Z,5.2
2022-11-01T08:00:16.070Z,5.8
2022-11-01T08:01:21.251Z,4.8
2022-11-01T08:02:25.432Z,5.9
2022-11-01T08:03:29.467Z,5.4
2022-11-01T08:04:34.018Z,5.9
2022-11-01T08:05:38.127Z,5.6
2022-11-01T08:06:43.516Z,5.5
2022-11-01T08:07:46.809Z,5.5
2022-11-01T08:08:50.950Z,5.7
2022-11-01T08:09:55.998Z,5.5
2022-11-01T08:11:00.077Z,6.1
2022-11-01T08:12:04.654Z,5.5
2022-11-01T08:13:08.801Z,6.2
2022-11-01T08:14:18.394Z,5.6
2022-11-01T08:15:22.466Z,6.4
2022-11-01T08:16:26.634Z,5.6
2022-11-01T08:17:31.195Z,5.3
2022-11-01T08:18:35.677Z,5.1
2022-11-01T08:19:39.742Z,6.1
2022-11-01T08:20:44.333Z,5.4
2022-11-01T08:21:48.481Z,5.7
2022-11-01T08:22:53.149Z,5.3
2022-11-01T08:23:57.663Z,5.7
2022-11-01T08:25:01.760Z,5.6
2022-11-01T08:26:06.343Z,5.9
2022-11-01T08:27:10.995Z,6.6
2022-11-01T08:28:15.655Z,5.6
2022-11-01T08:29:19.962Z,5.3
2022-11-01T08:30:24.344Z,6.2
2022-11-01T08:31:28.871Z,6.2
2022-11-01T08:32:33.349Z,5.4
2022-11-01T08:33:37.869Z,6.3
2022-11-01T08:34:42.483Z,6.7
2022-11-01T08:35:50.302Z,6.4
2022-11-01T08:36:51.899Z,5.9
2022-11-01T08:37:56.193Z,7
2022-11-01T08:39:00.790Z,7.3
2022-11-01T08:40:05.300Z,6.8
2022-11-01T08:41:09.946Z,6.6
2022-11-01T08:42:14.014Z,8.2
2022-11-01T08:43:18.097Z,7.4
2022-11-01T08:44:22.584Z,7.2
2022-11-01T08:45:26.741Z,7.3
2022-11-01T08:46:31.204Z,6.4
2022-11-01T08:47:35.320Z,7.5
2022-11-01T08:48:39.863Z,7.5
2022-11-01T08:49:43.927Z,5.8
2022-11-01T08:50:48.023Z,7.5
2022-11-01T08:51:52.531Z,6.9
2022-11-01T08:52:57.200Z,6.4
2022-11-01T08:54:07.317Z,7.2
2022-11-01T08:55:11.450Z,6.3
2022-11-01T08:56:16.099Z,6.4
2022-11-01T08:57:20.526Z,6.2
2022-11-01T08:58:24.617Z,6.7
2022-11-01T08:59:28.818Z,7.3
2022-11-01T09:00:33.379Z,6.2
2022-11-01T09:01:38.049Z,5.9
2022-11-01T09:02:42.455Z,6.8
2022-11-01T09:03:47.065Z,8
2022-11-01T09:04:51.574Z,6.7
2022-11-01T09:05:55.606Z,6.6
2022-11-01T09:06:59.754Z,6.4
2022-11-01T09:08:05.136Z,8.4
2022-11-01T09:09:08.831Z,7.3
2022-11-01T09:10:13.017Z,7.8
2022-11-01T09:11:17.114Z,7.3
2022-11-01T09:12:24.503Z,7.7
2022-11-01T09:13:25.718Z,7.6
2022-11-01T09:14:30.110Z,7
2022-11-01T09:15:34.379Z,6.6
2022-11-01T09:16:38.959Z,6.7
2022-11-01T09:17:43.610Z,6.3
2022-11-01T09:18:48.098Z,5.9
2022-11-01T09:19:53.173Z,6.4
2022-11-01T09:20:57.765Z,6.3
2022-11-01T09:22:02.339Z,6.9
2022-11-01T09:23:06.913Z,7.2
2022-11-01T09:24:11.469Z,7.2
2022-11-01T09:25:16.037Z,6.5
2022-11-01T09:26:20.102Z,6.4
2022-11-01T09:27:24.162Z,8.2
2022-11-01T09:28:31.431Z,7.7
2022-11-01T09:30:38.955Z,8.1
2022-11-01T09:31:40.843Z,8.2
2022-11-01T09:32:44.941Z,7.5
2022-11-01T09:33:49.022Z,8.3
2022-11-01T09:34:56.087Z,8.1
2022-11-01T09:36:00.247Z,6.3
2022-11-01T09:37:04.865Z,7.3
2022-11-01T09:38:09.454Z,9
2022-11-01T09:39:14.066Z,6.8
2022-11-01T09:40:18.550Z,5.9
2022-11-01T09:41:22.574Z,6.5
2022-11-01T09:42:31.827Z,9.4
2022-11-01T09:43:38.861Z,7.1
2022-11-01T09:44:42.952Z,8.5
2022-11-01T09:45:47.545Z,6.1
2022-11-01T09:46:53.437Z,10.2
2022-11-01T09:47:56.178Z,11.5
2022-11-01T09:49:00.278Z,10.3
2022-11-01T09:50:04.378Z,10.8
2022-11-01T09:51:16.499Z,11.3
2022-11-01T09:52:21.072Z,9.2
2022-11-01T09:53:25.165Z,8.1
2022-11-01T09:54:29.285Z,7.9
2022-11-01T09:55:33.375Z,7.3
2022-11-01T09:56:48.209Z,7.1
2022-11-01T09:58:03.083Z,9.2
2022-11-01T09:59:06.942Z,8.8
2022-11-01T10:00:14.547Z,8
2022-11-01T10:01:18.658Z,7.2
2022-11-01T10:02:33.115Z,10.7
2022-11-01T10:03:45.585Z,7.9
2022-11-01T10:04:57.818Z,9.1
2022-11-01T10:06:07.521Z,8.1
2022-11-01T10:07:17.130Z,9.6
2022-11-01T10:08:21.321Z,9.3
2022-11-01T10:09:35.978Z,8.7
2022-11-01T10:10:43.174Z,7.6
2022-11-01T10:11:57.871Z,8.8
2022-11-01T10:13:10.073Z,8.7
2022-11-01T10:14:19.273Z,10.4
2022-11-01T10:15:23.330Z,11.7
2022-11-01T10:16:38.177Z,9.6
2022-11-01T10:17:42.653Z,9.5
2022-11-01T10:18:52.300Z,9
2022-11-01T10:19:59.494Z,7.8
2022-11-01T10:21:04.117Z,8.2
2022-11-01T10:22:14.221Z,8.1
2022-11-01T10:23:23.469Z,7.4
2022-11-01T10:24:38.005Z,9.1
2022-11-01T10:25:45.221Z,8.1
2022-11-01T10:26:49.269Z,7.4
2022-11-01T10:28:04.121Z,6.9
2022-11-01T10:29:11.269Z,7.7
2022-11-01T10:30:23.425Z,7.1
2022-11-01T10:31:27.994Z,7.9
2022-11-01T10:32:32.045Z,7
2022-11-01T10:33:36.581Z,6.4
2022-11-01T10:34:40.586Z,7
2022-11-01T10:35:44.733Z,6.5
2022-11-01T10:36:51.849Z,6.8
2022-11-01T10:38:04.206Z,8.2
2022-11-01T10:39:48.576Z,7.9
2022-11-01T10:40:13.625Z,8.1
2022-11-01T10:41:17.277Z,8.5
2022-11-01T10:42:32.080Z,8.2
2022-11-01T10:43:36.093Z,7.4
2022-11-01T10:44:46.286Z,7.2
2022-11-01T10:45:50.350Z,6.9
2022-11-01T10:46:54.449Z,6.9
2022-11-01T10:47:58.605Z,7
2022-11-01T10:49:03.120Z,7.4
2022-11-01T10:50:07.884Z,7.3
2022-11-01T10:51:14.277Z,7
2022-11-01T10:52:18.447Z,7.1
2022-11-01T10:53:25.521Z,7.3
2022-11-01T10:54:29.713Z,7.5
2022-11-01T10:55:34.116Z,7
2022-11-01T10:56:43.843Z,7.3
2022-11-01T10:57:47.974Z,7.7
2022-11-01T10:58:52.489Z,6.6
2022-11-01T11:00:02.299Z,7.8
2022-11-01T11:01:07.438Z,7.7
2022-11-01T11:02:12.051Z,7.2
2022-11-01T11:03:21.504Z,7.9
2022-11-01T11:04:26.114Z,8.2
2022-11-01T11:05:30.665Z,7.2
2022-11-01T11:06:35.253Z,7.5
2022-11-01T11:07:39.873Z,8.4
2022-11-01T11:08:44.516Z,7.1
2022-11-01T11:09:52.226Z,8.3
2022-11-01T11:10:56.658Z,8.6
2022-11-01T11:12:03.744Z,8.2
2022-11-01T11:13:13.464Z,8.4
2022-11-01T11:14:17.946Z,7.8
2022-11-01T11:15:22.112Z,7.6
2022-11-01T11:16:31.709Z,7.9
2022-11-01T11:17:41.262Z,8.6
2022-11-01T11:18:45.314Z,8
2022-11-01T11:20:00.114Z,7.5
2022-11-01T11:21:04.770Z,9.2
2022-11-01T11:22:09.284Z,7.2
2022-11-01T11:23:13.304Z,6.9
2022-11-01T11:24:17.441Z,6.9
2022-11-01T11:25:29.554Z,6.3
2022-11-01T11:26:38.322Z,7.3
2022-11-01T11:27:38.351Z,7.2
2022-11-01T11:28:48.384Z,6.4
2022-11-01T11:29:52.462Z,7.6
2022-11-01T11:30:56.578Z,7.6
2022-11-01T11:32:11.285Z,7.1
2022-11-01T11:33:18.389Z,7.1
2022-11-01T11:34:22.446Z,7
2022-11-01T11:35:37.144Z,7.7
2022-11-01T11:36:41.923Z,7.3
2022-11-01T11:37:45.793Z,8.2
2022-11-01T11:38:49.900Z,7.7
2022-11-01T11:39:54.057Z,6.9
2022-11-01T11:41:03.673Z,8.5
2022-11-01T11:42:07.846Z,7.8
2022-11-01T11:43:14.955Z,8.5
2022-11-01T11:44:19.593Z,8.4
2022-11-01T11:45:31.660Z,7.6
2022-11-01T11:46:36.577Z,7.7
2022-11-01T11:47:40.853Z,7.2
2022-11-01T11:48:45.448Z,7.6
2022-11-01T11:49:52.661Z,8.6
2022-11-01T11:50:57.080Z,7.6
2022-11-01T11:52:04.666Z,7.9
2022-11-01T11:53:08.893Z,7.5
2022-11-01T11:54:16.405Z,6.9
2022-11-01T11:55:26.666Z,7.1
2022-11-01T11:56:36.200Z,7.3
2022-11-01T11:57:40.341Z,6.6
2022-11-01T11:58:44.894Z,7.7
2022-11-01T11:59:48.930Z,8
2022-11-01T12:00:53.170Z,7.2
2022-11-01T12:02:00.390Z,7
2022-11-01T12:03:05.257Z,7.6
2022-11-01T12:04:09.467Z,7.4
2022-11-01T12:05:17.077Z,7
2022-11-01T12:06:22.013Z,6.8
2022-11-01T12:07:27.472Z,7.5
2022-11-01T12:08:35.213Z,7.6
2022-11-01T12:09:44.826Z,6.8
2022-11-01T12:10:49.050Z,7
2022-11-01T12:11:53.761Z,8.1
2022-11-01T12:12:58.045Z,7.3
2022-11-01T12:14:02.215Z,6.6
2022-11-01T12:15:16.885Z,6.9
2022-11-01T12:17:31.337Z,7.2
2022-11-01T12:18:46.004Z,7.5
2022-11-01T12:19:50.581Z,7
2022-11-01T12:21:00.122Z,6.4
2022-11-01T12:22:04.270Z,7.3
2022-11-01T12:23:08.785Z,7
2022-11-01T12:24:13.319Z,7.2
2022-11-01T12:25:28.246Z,6.8
2022-11-01T12:26:32.774Z,7.5
2022-11-01T12:27:37.216Z,7.6
2022-11-01T12:28:41.347Z,7.6
2022-11-01T12:29:48.644Z,7.6
2022-11-01T12:30:53.008Z,6.7
2022-11-01T12:31:57.284Z,7.1
2022-11-01T12:33:06.777Z,7.5
2022-11-01T12:34:16.377Z,7.1
2022-11-01T12:35:26.192Z,6.8
2022-11-01T12:36:33.354Z,7.6
2022-11-01T12:37:40.493Z,6.7
2022-11-01T12:38:47.573Z,7.1
2022-11-01T12:39:52.279Z,6.3
2022-11-01T12:40:59.869Z,7.1
2022-11-01T12:42:14.477Z,6.6
2022-11-01T12:43:19.208Z,7.1
2022-11-01T12:44:28.652Z,7.3
2022-11-01T12:45:33.179Z,7.7
2022-11-01T12:46:48.087Z,7
2022-11-01T12:47:52.533Z,7
2022-11-01T12:49:02.328Z,6.6
2022-11-01T12:50:11.865Z,7.2
2022-11-01T12:51:22.080Z,7
2022-11-01T12:52:26.636Z,6.6
2022-11-01T12:53:41.343Z,6.4
2022-11-01T12:54:48.474Z,6.4
2022-11-01T12:55:52.661Z,7.4
2022-11-01T12:56:57.114Z,6.9
2022-11-01T12:58:01.293Z,6.5
2022-11-01T12:59:05.756Z,7.2
2022-11-01T13:00:13.363Z,7.1
2022-11-01T13:01:18.148Z,6.5
2022-11-01T13:02:27.781Z,7.3
2022-11-01T13:03:40.400Z,7.4
2022-11-01T13:04:55.069Z,6.8
2022-11-01T13:06:04.685Z,7.3
2022-11-01T13:07:14.316Z,6.3
2022-11-01T13:08:29.021Z,6.9
2022-11-01T13:09:41.768Z,6.7
2022-11-01T13:10:51.398Z,7.6
2022-11-01T13:11:55.517Z,6.8
2022-11-01T13:13:00.187Z,7.6
2022-11-01T13:14:12.258Z,7.7
2022-11-01T13:15:27.175Z,7.8
2022-11-01T13:16:32.353Z,7.2
2022-11-01T13:17:36.860Z,7
2022-11-01T13:18:41.248Z,7.8
2022-11-01T13:19:55.988Z,7.4
2022-11-01T13:21:08.260Z,7.2
2022-11-01T13:22:12.405Z,7.3
2022-11-01T13:23:21.946Z,6.9
2022-11-01T13:24:36.604Z,6.7
2022-11-01T13:25:46.346Z,6.5
2022-11-01T13:26:53.654Z,6.6
2022-11-01T13:28:06.220Z,7.7
2022-11-01T13:29:18.918Z,8.2
2022-11-01T13:30:31.181Z,8.2
2022-11-01T13:31:35.736Z,7.6
2022-11-01T13:32:45.354Z,7.1
2022-11-01T13:33:57.636Z,7.3
2022-11-01T13:35:09.625Z,7.2
2022-11-01T13:36:27.181Z,8.8
2022-11-01T13:37:38.821Z,8.2
2022-11-01T13:38:49.519Z,6.8
2022-11-01T13:40:01.613Z,6.9
2022-11-01T13:41:16.657Z,7.1
2022-11-01T13:42:26.045Z,7.7
2022-11-01T13:43:35.557Z,7.9
2022-11-01T13:44:39.724Z,7.3
2022-11-01T13:45:49.861Z,7.1
2022-11-01T13:46:56.944Z,7.4
2022-11-01T13:48:12.142Z,7.3
2022-11-01T13:49:19.533Z,7.5
2022-11-01T13:50:24.032Z,7.1
2022-11-01T13:51:35.217Z,7.2
2022-11-01T13:52:44.716Z,7.1
2022-11-01T13:53:48.897Z,6.7
2022-11-01T13:54:53.368Z,7.5
2022-11-01T13:56:03.132Z,7.2
2022-11-01T13:57:17.792Z,8
2022-11-01T13:58:21.869Z,8
2022-11-01T13:59:26.009Z,6.8
2022-11-01T14:00:31.233Z,8.2
2022-11-01T14:01:35.845Z,8
2022-11-01T14:02:39.883Z,7
2022-11-01T14:03:49.978Z,6.7
2022-11-01T14:05:03.584Z,7.6
2022-11-01T14:06:10.646Z,8.2
2022-11-01T14:07:22.840Z,7
2022-11-01T14:08:27.140Z,7.4
2022-11-01T14:09:31.525Z,7.6
2022-11-01T14:10:36.000Z,6.4
2022-11-01T14:11:40.117Z,6.7
2022-11-01T14:12:49.695Z,6.4
2022-11-01T14:13:57.026Z,7
2022-11-01T14:15:01.425Z,7.1
2022-11-01T14:16:16.239Z,6.3
2022-11-01T14:17:20.241Z,6.3
2022-11-01T14:18:24.354Z,6
2022-11-01T14:19:28.530Z,7.1
2022-11-01T14:20:33.009Z,7.3
2022-11-01T14:21:43.233Z,7.1
2022-11-01T14:22:47.789Z,6
2022-11-01T14:23:52.304Z,6.7
2022-11-01T14:24:59.448Z,5.8
2022-11-01T14:26:03.530Z,6.3
2022-11-01T14:27:18.649Z,7.5
2022-11-01T14:28:27.889Z,7.8
2022-11-01T14:29:32.651Z,8.6
2022-11-01T14:30:37.068Z,7.6
2022-11-01T14:31:41.080Z,7.1
2022-11-01T14:32:45.765Z,6.7
2022-11-01T14:34:00.224Z,7.3
2022-11-01T14:35:01.985Z,6.8
2022-11-01T14:36:07.049Z,9
2022-11-01T14:37:11.588Z,6.5
2022-11-01T14:38:16.172Z,7
2022-11-01T14:39:20.572Z,6.3
2022-11-01T14:40:32.520Z,6.3
2022-11-01T14:41:44.666Z,6.1
2022-11-01T14:42:49.088Z,6.8
2022-11-01T14:43:53.242Z,6.1
2022-11-01T14:44:57.804Z,7.7
2022-11-01T14:46:01.906Z,7.3
2022-11-01T14:47:09.460Z,7.4
2022-11-01T14:48:24.591Z,7.7
2022-11-01T14:49:28.880Z,6.5
2022-11-01T14:50:38.577Z,6.6
2022-11-01T14:51:43.064Z,7.5
2022-11-01T14:52:47.136Z,8
2022-11-01T14:53:51.320Z,7.4
2022-11-01T14:55:00.864Z,8.3
2022-11-01T14:56:13.656Z,8.4
2022-11-01T14:57:18.476Z,7.1
2022-11-01T14:58:28.080Z,8.1
2022-11-01T14:59:32.504Z,8.2
2022-11-01T15:00:37.196Z,7.4
2022-11-01T15:01:41.689Z,8
2022-11-01T15:02:46.181Z,7.4
2022-11-01T15:03:50.356Z,7.9
2022-11-01T15:04:57.333Z,7.8
2022-11-01T15:06:01.481Z,7.3
2022-11-01T15:07:06.012Z,8.1
2022-11-01T15:08:15.660Z,7.7
2022-11-01T15:09:27.880Z,7.6
2022-11-01T15:10:31.913Z,8.2
2022-11-01T15:11:41.548Z,8.2
2022-11-01T15:12:47.713Z,7.7
2022-11-01T15:13:55.440Z,7.6
2022-11-01T15:14:59.813Z,8.9